Maghera, United Kingdom
Current Conditions -  °F | °C
As of 3:20 AM on Sunday 23 Nov 2014 (Local Time) from EGAA Reporting Station
Clear Clear  
Wind Chill:   Ceiling: Unl
Heat Index:   Visibility: 6mi
Dew Point:   Wind: 7mph
Humidity: 100%   Direction: 250°WSW
Pressure: 30.03"   Gusts: NA
Location:  54.84°N, 6.67°W
Report Text: EGAA 230320Z AUTO 25006KT 9999 NCD 04/04 Q1017
Loading
Personal Weather Stations






























Interactive Weather Map New forecast layout! Learn more

10-Day Weather Forecast

Advertisements
Track Severe Weather on mobile